Ulaanbaatar, Mongolia

8:37 AM ULAT on September 25, 2016 (GMT +0800)
Buyant-Ukhaa | | Change Station

Elev 4364 ft 47.83 °N, 106.78 °E | Updated 7 minutes ago

Light Rain
Light Rain
45 °F
Feels Like 45 °F
N
0
Wind Variable Wind from North

Today
High -- | Low -- °F
--% Chance of Precip.
Yesterday
High -- | Low -- °F
Precip. -- in
Pressure 29.95 in
Visibility 5.0 miles
Clouds Few 2700 ft
Few 2700 ft
Mostly Cloudy 3000 ft
Dew Point 43 °F
Humidity 93%
Rainfall 0.00 in
Snow Depth Not available.
6:43 AM 6:44 PM
Waning Crescent, 33% visible
METAR ZMUB 250030Z 00000MPS 8000NW -RA FEW027 FEW027CB BKN030 07/06 Q1014 R14140095 NOSIG RMK QFE653.4 92 ESE CM NW MO
Pressure 29.95 in
Visibility 5.0 miles
Clouds Few 2700 ft
Few 2700 ft
Mostly Cloudy 3000 ft
Dew Point 43 °F
Humidity 93%
Rainfall 0.00 in
Snow Depth Not available.
6:43 AM 6:44 PM
Waning Crescent, 33% visible
METAR ZMUB 250030Z 00000MPS 8000NW -RA FEW027 FEW027CB BKN030 07/06 Q1014 R14140095 NOSIG RMK QFE653.4 92 ESE CM NW MO

10-Day Weather Forecast

No radar image for this location.
×

Almanac

Astronomy

Sep. 25, 2016 Rise Set
Actual Time
Civil Twilight
Nautical Twilight
Astronomical Twilight
Moon
Length of Visible Light
Length of Day
Tomorrow will be .
, % of the Moon is Illuminated

Today's Extremes

Country Highs Country Lows

Community

WunderPhotos

Upload Photos

1,941,501 photos uploaded!

WunderBlog® & News

Nearby

Air Quality

  Air Quality AQ Index Pollutant
Not available.

Snow Depth

Station Depth Elevation

Earthquake Activity

City Distance Mag. Time & Date
Minimum magnitude displayed is 2.5.

Coastal Water Temperatures

Place Temperature

Stations

Nearby Weather Stations

Station Location Temp. Windchill Dew Point Humidity Wind Precip. Elev Updated Type